Jieyang Chaoshan International Airport

Airport
ICAO code: 
ZGOW
IATA Code: 
SWA
Summary
ICAO Region: 
APAC
Territory: 
Location: 
Jiedong County, Jieyang, Guangdong
Serving: 
Jieyang, Shantou, Chaozhou
Coordinates: 
Aerial View: 
23° 33' 9" N, 116° 30' 20.999" E
Metar
Observation
ZGOW 021600Z 02002MPS 330V090 CAVOK 11/06 Q1022 NOSIG
Station
Shantou
Date/Time
2021-12-02 16:00:00
Wind direction
20°
Lowest cloud amount
clouds and visibility OK
Temperature
11°C
Dew point
6°C
Humidity
71%
QNH
1022 hPa
Weather condition
n/a

Description

Jieyang Chaoshan International Airport is an airport serving the cities of Jieyang, Shantou, Chaozhou and nearby areas in eastern Guangdong Province, China. It is located in the towns of Paotai and Denggang in Jiedong County, Jieyang, Guangdong.

Climatology

Within the Köppen Climate Classification System, ((Koppen climate classification Cwa)) this climate type generally has warm and humid summers with mild winters. Its extent is from 30 to 50° of latitude mainly on the eastern and western borders of most continents. During the winter, the main weather feature is the mid-latitude cyclone. Convective thunderstorms provide precipitation in the summer months.

Airport map: 
Aerial View: 

SKYbrary Partners:

Safety knowledge contributed by: